x

Cape Cleare - 17 Nm South Of Montague Is, Ak (46076) Wave Buoy

2:50pm - Fri 18th Apr 2014 All times are AKDT. -8 hours from GMT.

  • Sig Wave height 3.9ft
  • Peak Period 8s
  • Average Period 5s
  • Wind
    11mph, 16mph gusts
  • Sea Temp 42°f
  • Air Temp 41°f
  • Sea Pressure 1002.3mb
  • Cape Cleare - 17 Nm South Of Montague Is,  Ak
  • Cape Cleare - 17 Nm South Of Montague Is,  Ak

More Historic Weather Station data

Upgrade to MSW Pro to gain access to the past 30 days of data for over 8000 Wavebouys and Weather Stations around the globe.

Join Pro

Comparision Forecast

View Surf forecast
   
Fri 04/18 2:50pm 4ft 8s 5s 11 16 mph 1002.3mb 42f 41f
1:50pm 4ft 6s 5s 9
mph
1002mb 42f 41f
12:50pm 4ft 7s 5s 9 11 mph 1001.4mb 42f 41f
11:50am 4ft 7s 5s 7 11 mph 1000.9mb 42f 40f
10:50am 4ft 8s 5s 13 16 mph 1000mb 42f 40f
9:50am 3.5ft 10s 5s 11 13 mph 999.1mb 42f 40f
8:50am 3.5ft 7s 5s 13 18 mph 998.3mb 42f 40f
7:50am 3ft 8s 5s 11 13 mph 997.3mb 42f 39f
6:50am 3.5ft 10s 5s 13 18 mph 996.5mb 42f 40f
5:50am 3.5ft 9s 6s 11 13 mph 996.2mb 42f 41f
4:50am 3.5ft 9s 6s 11 13 mph 995.9mb 42f 41f
3:50am 3.5ft 9s 6s 11 13 mph 995.8mb 42f 41f
2:50am 4ft 11s 7s 11 16 mph 995.8mb 42f 41f
1:50am 3.5ft 10s 6s 9
mph
995.8mb 42f 41f
12:50am 3.5ft 10s 6s 11 13 mph 995.6mb 42f 41f
Thu 04/17 11:50pm 3.5ft 10s 7s 11 13 mph 995.3mb 43f 42f
10:50pm 4ft 10s 7s 9 11 mph 995.4mb 43f 42f
9:50pm 3.5ft 10s 7s 7 9 mph 995.4mb 43f 42f
8:50pm 3.5ft 10s 6s 7 9 mph 995.1mb 43f 42f
7:50pm 3.5ft 10s 7s 7
mph
994.8mb 44f 42f
6:50pm 4ft 10s 7s 2 4 mph 994.8mb 43f 43f
5:50pm 4ft 10s 7s 2
mph
994.8mb 44f 43f
4:50pm 4ft 11s 7s 2 4 mph 994.9mb 43f 42f
3:50pm 4.5ft 10s 7s 4
mph
995mb 43f 42f
2:50pm 4.5ft 10s 7s 7
mph
995.1mb 43f 42f
1:50pm 4.5ft 10s 7s 7 9 mph 995.2mb 43f 42f
12:50pm 4.5ft 10s 6s 2 4 mph 995.3mb 43f 42f
11:50am 4.5ft 10s 6s 2 4 mph 995.4mb 42f 42f
10:50am 4.5ft 11s 6s 2 4 mph 995.6mb 42f 42f
9:50am 4.5ft 10s 6s 4 7 mph 995.7mb 42f 42f
8:50am 4.5ft 11s 5s 9 11 mph 996mb 42f 41f
7:50am 4.5ft 10s 5s 11 13 mph 996.3mb 42f 41f
6:50am 4.5ft 10s 5s 11 13 mph 996.7mb 42f 41f
5:50am 4.5ft 10s 5s 16 18 mph 997mb 42f 41f
4:50am 5ft 11s 5s 16 18 mph 997.4mb 42f 41f
3:50am 5ft 11s 5s 16 20 mph 997.8mb 42f 41f
2:50am 5ft 6s 5s 18 22 mph 998.3mb 42f 41f
1:50am 5ft 6s 5s 20 25 mph 998.6mb 42f 41f
12:50am 4.5ft 5s 4s 20 25 mph 999.2mb 42f 40f
Wed 04/16 11:50pm 4.5ft 6s 4s 18 22 mph 999.9mb 42f 41f
10:50pm 5ft 5s 4s 20 22 mph 1000.6mb 42f 41f
9:50pm 4.5ft 6s 4s 20 22 mph 1001.1mb 42f 40f
8:50pm 5ft 5s 4s 18 22 mph 1001.7mb 42f 40f
7:50pm 5ft 5s 4s 20 25 mph 1002mb 42f 41f
6:50pm 4.5ft 5s 4s 18 22 mph 1002.4mb 42f 41f
5:50pm 5ft 5s 5s 20 25 mph 1002.8mb 42f 41f
4:50pm 5ft 11s 5s 20 25 mph 1003.3mb 42f 41f
3:50pm 5ft 11s 5s 18 22 mph 1003.7mb 42f 41f
2:50pm 4.5ft 11s 5s 18 22 mph 1004.2mb 42f 41f
1:50pm 3.5ft 10s 5s 18 20 mph 1004.8mb 42f 41f
12:50pm 4.5ft 11s 5s 13 16 mph 1005.4mb 42f 41f
11:50am 4.5ft 11s 5s 16 18 mph 1005.9mb 42f 40f
10:50am 5ft 11s 5s 13 16 mph 1006.3mb 42f 41f
9:50am 4.5ft 11s 5s 13 18 mph 1006.9mb 42f 41f
8:50am 5ft 10s 5s 18 20 mph 1007.1mb 42f 40f
7:50am 5ft 10s 5s 11 13 mph 1007.4mb 42f 41f
6:50am 5ft 11s 5s 13 16 mph 1007.7mb 42f 41f
5:50am 5.5ft 11s 6s 18 20 mph 1007.8mb 42f 41f
4:50am 5ft 11s 6s 13 16 mph 1007.9mb 42f 41f
3:50am 5.5ft 10s 6s 18 20 mph 1008.1mb 42f 41f
2:50am 6ft 11s 7s 16 20 mph 1008.5mb 42f 41f
1:50am 5.5ft 11s 7s 13 16 mph 1008.9mb 42f 41f
12:50am 6ft 11s 8s 13 16 mph 1009.2mb 42f 41f
Tue 04/15 11:50pm 6ft 11s 8s 11 13 mph 1009.5mb 42f 41f
10:50pm 5ft 11s 6s 16 18 mph 1009.5mb 42f 41f
9:50pm 5ft 11s 7s 13 16 mph 1009.6mb 42f 41f
8:50pm 5.5ft 11s 7s 11 13 mph 1009.6mb 42f 40f
7:50pm 5ft 11s 6s 13
mph
1009.4mb 42f 41f
6:50pm 5ft 12s 7s 11 13 mph 1009.5mb 42f 41f
5:50pm 6ft 11s 7s 11 13 mph 1009.5mb 42f 41f
4:50pm 6ft 11s 7s 11 13 mph 1009.3mb 42f 41f
3:50pm 7.5ft 12s 8s 13 16 mph 1009.1mb 42f 40f
2:50pm 8ft 12s 8s 13 18 mph 1009.4mb 42f 40f
1:50pm 6ft 12s 7s 16 18 mph 1009.4mb 42f 40f
12:50pm 6ft 12s 7s 16 20 mph 1009.4mb 42f 40f
11:50am 7.5ft 12s 7s 16 18 mph 1009.5mb 42f 40f
10:50am 6ft 11s 7s 18 22 mph 1009.3mb 42f 40f
9:50am 7.5ft 13s 8s 16 18 mph 1009.5mb 42f 40f
8:50am 5.5ft 13s 8s 13 18 mph 1009.4mb 42f 40f
7:50am 5.5ft 13s 9s 9 11 mph 1009.6mb 42f 40f
6:50am 5ft 13s 8s 4 7 mph 1009.5mb 42f 40f
5:50am 4.5ft 11s 7s 7 9 mph 1009.4mb 42f 40f
4:50am 4ft 11s 7s 9 11 mph 1009.5mb 42f 41f
3:50am 4ft 9s 7s 4 7 mph 1009.4mb 42f 41f
2:50am 3.5ft 8s 7s 2 4 mph 1009.4mb 42f 40f
1:50am 4ft 9s 7s 9 11 mph 1009.5mb 42f 40f
12:50am 3.5ft 8s 6s 4 7 mph 1009.6mb 42f 40f
Mon 04/14 11:50pm 3.5ft 8s 6s 4 7 mph 1009.9mb 42f 40f